Last 24 Hours

UH Manoa Atmospheric Sciences

15 Minute Data | Pacific/Honolulu
as of 12/7/21 10:40 AM HST
Station Date Time Temp (°F) RH (%) Dew Pt (°F) Wind Spd (mph) Wind Dir (°) Wind Gust (mph) Latest Rain (In) Solar Rad (W/m2) Heat Index (°F) Barometric Press (inHg) Daily Rain (In) Daily Min Temp (°F) Daily Max Temp (°F) Daily Max Wind (mph)
UH Manoa Atmospheric Sciences 12/7/21 1030 74.6 81 68.4 10.0 NE | 45 17.8 0.00 231 74.6 29.99 0.48 66.8 74.8 19.7
UH Manoa Atmospheric Sciences 12/7/21 1015 73.9 83 68.6 7.7 NE | 42 12.4 0.00 234 73.9 30.02 0.48 66.8 74.5 19.7
UH Manoa Atmospheric Sciences 12/7/21 1000 73.0 86 68.7 6.1 NE | 51 13.4 0.00 157 73.0 30.04 0.48 66.8 73.6 19.7
UH Manoa Atmospheric Sciences 12/7/21 0945 72.0 89 68.7 7.1 NE | 42 13.1 0.00 184 72.0 30.04 0.48 66.8 72.8 19.7
UH Manoa Atmospheric Sciences 12/7/21 0930 70.6 91 67.9 5.6 NE | 40 10.0 0.00 284 70.6 30.06 0.48 66.8 71.2 19.7
UH Manoa Atmospheric Sciences 12/7/21 0915 70.0 91 67.2 2.7 NE | 52 7.2 0.00 177 70.0 30.08 0.48 66.8 71.0 19.7
UH Manoa Atmospheric Sciences 12/7/21 0900 69.7 90 66.7 1.9 ESE | 116 7.2 0.00 65 69.7 30.08 0.48 66.8 71.0 19.7
UH Manoa Atmospheric Sciences 12/7/21 0845 69.8 89 66.5 2.5 WNW | 299 6.9 0.01 27 69.8 30.08 0.48 66.8 71.0 19.7
UH Manoa Atmospheric Sciences 12/7/21 0830 70.1 89 66.7 1.3 WNW | 300 3.8 0.00 21 70.1 30.08 0.47 66.8 71.0 19.7
UH Manoa Atmospheric Sciences 12/7/21 0815 70.1 88 66.5 0.4 NNE | 14 2.5 0.01 12 70.1 30.08 0.47 66.8 71.0 19.7
UH Manoa Atmospheric Sciences 12/7/21 0800 70.3 88 66.6 1.6 N | 8 3.4 0.01 8 70.3 30.07 0.46 66.8 71.0 19.7
UH Manoa Atmospheric Sciences 12/7/21 0745 70.1 88 66.3 0.2 WSW | 255 1.6 0.00 2 70.1 30.06 0.45 66.8 71.0 19.7
UH Manoa Atmospheric Sciences 12/7/21 0730 70.2 87 66.2 1.3 E | 94 3.0 0.00 1 70.2 30.05 0.45 66.8 71.0 19.7
UH Manoa Atmospheric Sciences 12/7/21 0715 70.0 87 65.9 2.1 NW | 314 3.9 0.00 0 70.0 30.04 0.45 66.8 71.0 19.7
UH Manoa Atmospheric Sciences 12/7/21 0700 70.3 85 65.7 2.1 WNW | 282 5.0 0.00 0 70.3 30.03 0.45 66.8 71.0 19.7
UH Manoa Atmospheric Sciences 12/7/21 0645 70.6 84 65.6 0.8 W | 261 2.9 0.00 0 70.6 30.02 0.45 66.8 71.0 19.7
UH Manoa Atmospheric Sciences 12/7/21 0630 70.8 84 65.7 1.4 NNE | 16 6.7 0.00 0 70.8 30.01 0.45 66.8 71.0 19.7
UH Manoa Atmospheric Sciences 12/7/21 0615 70.4 84 65.6 5.7 NNE | 27 10.5 0.00 0 70.4 29.99 0.45 66.8 70.8 19.7
UH Manoa Atmospheric Sciences 12/7/21 0600 70.2 85 65.4 9.1 NNE | 33 16.3 0.00 0 70.2 29.98 0.45 66.8 70.4 19.7
UH Manoa Atmospheric Sciences 12/7/21 0545 69.9 86 65.6 10.2 NE | 35 19.7 0.00 0 69.9 29.98 0.45 66.8 70.1 19.7
UH Manoa Atmospheric Sciences 12/7/21 0530 69.5 88 65.9 7.4 NNE | 31 15.0 0.00 0 69.5 29.98 0.45 66.8 70.1 15.0
UH Manoa Atmospheric Sciences 12/7/21 0515 69.1 90 66.2 6.8 NE | 43 14.8 0.01 0 69.1 29.98 0.45 66.8 70.1 15.0
UH Manoa Atmospheric Sciences 12/7/21 0500 68.2 92 65.9 4.3 NNE | 32 9.9 0.00 0 68.2 29.97 0.44 66.8 70.1 15.0
UH Manoa Atmospheric Sciences 12/7/21 0445 68.1 93 65.9 2.5 N | 5 7.3 0.00 0 68.1 29.99 0.44 66.8 70.1 15.0
UH Manoa Atmospheric Sciences 12/7/21 0430 68.2 93 66.0 3.2 W | 267 7.2 0.01 0 68.2 30.02 0.44 66.8 70.1 15.0
UH Manoa Atmospheric Sciences 12/7/21 0415 68.1 93 66.1 4.8 NNE | 27 9.5 0.03 0 68.1 30.00 0.43 66.8 70.1 15.0
UH Manoa Atmospheric Sciences 12/7/21 0400 68.0 94 66.2 4.2 NNE | 13 10.9 0.07 0 68.0 30.00 0.40 66.8 70.1 15.0
UH Manoa Atmospheric Sciences 12/7/21 0345 68.1 94 66.4 3.0 NNE | 29 11.8 0.06 0 68.1 30.01 0.33 66.8 70.1 15.0
UH Manoa Atmospheric Sciences 12/7/21 0330 68.4 95 66.8 2.4 N | 9 6.3 0.06 0 68.4 30.01 0.27 66.8 70.1 15.0
UH Manoa Atmospheric Sciences 12/7/21 0315 68.2 96 66.9 3.2 NNW | 343 14.2 0.03 0 68.2 30.00 0.21 66.8 70.1 15.0
UH Manoa Atmospheric Sciences 12/7/21 0300 67.9 96 66.8 2.8 NNW | 344 12.9 0.03 0 67.9 30.01 0.18 66.8 70.1 15.0
UH Manoa Atmospheric Sciences 12/7/21 0245 68.0 96 66.9 3.1 WNW | 295 6.0 0.01 0 68.0 30.01 0.15 66.8 70.1 15.0
UH Manoa Atmospheric Sciences 12/7/21 0230 68.1 97 67.2 3.4 NW | 325 8.4 0.01 0 68.1 30.02 0.14 66.8 70.1 15.0
UH Manoa Atmospheric Sciences 12/7/21 0215 67.6 97 66.6 1.4 W | 276 4.3 0.01 0 67.6 30.02 0.13 66.8 70.1 15.0
UH Manoa Atmospheric Sciences 12/7/21 0200 67.4 97 66.5 2.6 WSW | 252 4.9 0.01 0 67.4 30.02 0.12 66.8 70.1 15.0
UH Manoa Atmospheric Sciences 12/7/21 0145 67.1 97 66.1 4.6 WNW | 282 9.8 0.04 0 67.1 30.02 0.11 66.8 70.1 15.0
UH Manoa Atmospheric Sciences 12/7/21 0130 67.2 96 66.2 5.7 W | 262 12.5 0.02 0 67.2 30.02 0.07 67.0 70.1 15.0
UH Manoa Atmospheric Sciences 12/7/21 0115 68.0 96 67.0 8.3 W | 269 15.0 0.04 0 68.0 30.01 0.05 67.3 70.1 15.0
UH Manoa Atmospheric Sciences 12/7/21 0100 69.1 96 68.1 3.0 W | 265 11.8 0.00 0 69.1 30.02 0.01 68.8 70.1 11.8
UH Manoa Atmospheric Sciences 12/7/21 0045 69.5 96 68.5 2.2 SW | 230 5.4 0.00 0 69.5 30.02 0.01 69.2 70.1 5.7
UH Manoa Atmospheric Sciences 12/7/21 0030 69.8 97 68.9 2.0 NNW | 330 5.4 0.01 0 69.8 30.01 0.01 69.6 70.1 5.7
UH Manoa Atmospheric Sciences 12/7/21 0015 69.8 97 68.8 1.4 SW | 229 5.7 0.00 0 69.8 30.01 0.00 69.6 70.1 5.7
UH Manoa Atmospheric Sciences 12/7/21 0000 70.0 97 69.0 3.5 W | 278 8.4 0.01 0 70.0 30.00 7.07 69.5 77.7 28.8
UH Manoa Atmospheric Sciences 12/6/21 2345 70.6 97 69.6 3.2 NNW | 338 8.5 0.09 0 70.6 30.00 7.06 69.5 77.7 28.8
UH Manoa Atmospheric Sciences 12/6/21 2330 70.4 97 69.4 1.7 NE | 45 4.0 0.08 0 70.4 30.02 6.97 69.5 77.7 28.8
UH Manoa Atmospheric Sciences 12/6/21 2315 70.5 96 69.5 2.0 W | 263 7.1 0.22 0 70.5 30.02 6.89 69.5 77.7 28.8
UH Manoa Atmospheric Sciences 12/6/21 2300 70.6 96 69.6 0.7 WNW | 286 3.1 0.04 0 70.6 30.02 6.67 69.5 77.7 28.8
UH Manoa Atmospheric Sciences 12/6/21 2245 70.6 96 69.6 0.6 NE | 43 2.5 0.13 0 70.6 30.02 6.63 69.5 77.7 28.8
UH Manoa Atmospheric Sciences 12/6/21 2230 70.6 96 69.6 3.3 W | 276 7.1 0.23 0 70.6 30.01 6.50 69.5 77.7 28.8
UH Manoa Atmospheric Sciences 12/6/21 2215 70.8 96 69.7 1.1 SSE | 148 3.3 0.12 0 70.8 30.02 6.27 69.5 77.7 28.8
UH Manoa Atmospheric Sciences 12/6/21 2200 70.6 96 69.5 2.7 N | 3 7.4 0.05 0 70.6 30.00 6.15 69.5 77.7 28.8
UH Manoa Atmospheric Sciences 12/6/21 2145 70.5 96 69.4 3.0 NNE | 24 6.3 0.06 0 70.5 30.01 6.10 69.5 77.7 28.8
UH Manoa Atmospheric Sciences 12/6/21 2130 70.6 96 69.5 3.9 NNE | 12 7.9 0.03 0 70.6 30.02 6.04 69.5 77.7 28.8
UH Manoa Atmospheric Sciences 12/6/21 2115 70.4 96 69.3 5.3 NE | 45 9.8 0.05 0 70.4 30.02 6.01 69.5 77.7 28.8
UH Manoa Atmospheric Sciences 12/6/21 2100 70.5 96 69.3 3.5 NNE | 18 9.4 0.42 0 70.5 30.03 5.96 69.5 77.7 28.8
UH Manoa Atmospheric Sciences 12/6/21 2045 70.3 96 69.0 5.6 NE | 44 12.7 0.24 0 70.3 30.02 5.54 69.5 77.7 28.8
UH Manoa Atmospheric Sciences 12/6/21 2030 70.0 96 68.7 8.3 NE | 43 13.5 0.47 0 70.0 30.00 5.30 69.5 77.7 28.8
UH Manoa Atmospheric Sciences 12/6/21 2015 70.4 95 69.0 5.3 NNE | 25 12.4 0.50 0 70.4 29.99 4.83 69.5 77.7 28.8
UH Manoa Atmospheric Sciences 12/6/21 2000 71.5 95 70.0 4.8 NW | 316 12.2 0.58 0 71.5 30.01 4.33 69.5 77.7 28.8
UH Manoa Atmospheric Sciences 12/6/21 1945 71.9 95 70.5 4.5 WNW | 299 10.8 0.37 0 71.9 30.00 3.75 69.5 77.7 28.8
UH Manoa Atmospheric Sciences 12/6/21 1930 71.8 95 70.3 3.5 WNW | 290 7.2 0.10 0 71.8 29.99 3.38 69.5 77.7 28.8
UH Manoa Atmospheric Sciences 12/6/21 1915 71.8 95 70.3 4.7 NNE | 31 8.9 0.15 0 71.8 29.98 3.28 69.5 77.7 28.8
UH Manoa Atmospheric Sciences 12/6/21 1900 71.9 95 70.3 3.7 N | 10 8.4 0.07 0 71.9 29.97 3.13 69.5 77.7 28.8
UH Manoa Atmospheric Sciences 12/6/21 1845 72.0 94 70.3 3.7 SE | 129 8.6 0.21 0 72.0 29.97 3.06 69.5 77.7 28.8
UH Manoa Atmospheric Sciences 12/6/21 1830 71.9 94 70.3 6.8 NE | 35 10.2 0.04 0 71.9 29.94 2.85 69.5 77.7 28.8
UH Manoa Atmospheric Sciences 12/6/21 1815 71.8 95 70.3 5.1 NE | 44 8.6 0.01 0 71.8 29.95 2.81 69.5 77.7 28.8
UH Manoa Atmospheric Sciences 12/6/21 1800 71.5 95 70.1 7.2 NE | 38 13.0 0.01 0 71.5 29.95 2.80 69.5 77.7 28.8
UH Manoa Atmospheric Sciences 12/6/21 1745 71.3 95 69.8 6.6 NE | 34 10.4 0.06 1 71.3 29.96 2.79 69.5 77.7 28.8
UH Manoa Atmospheric Sciences 12/6/21 1730 71.6 94 70.0 5.5 NNE | 24 11.2 0.09 1 71.6 29.97 2.73 69.5 77.7 28.8
UH Manoa Atmospheric Sciences 12/6/21 1715 71.6 94 70.0 3.8 NE | 43 6.3 0.04 1 71.6 29.97 2.64 69.5 77.7 28.8
UH Manoa Atmospheric Sciences 12/6/21 1700 71.2 95 69.6 2.4 NE | 35 6.2 0.03 2 71.2 29.97 2.60 69.5 77.7 28.8
UH Manoa Atmospheric Sciences 12/6/21 1645 71.1 95 69.5 1.6 NW | 322 6.3 0.05 2 71.1 29.96 2.57 69.5 77.7 28.8
UH Manoa Atmospheric Sciences 12/6/21 1630 70.9 95 69.3 3.9 N | 11 8.4 0.07 1 70.9 29.96 2.52 69.5 77.7 28.8
UH Manoa Atmospheric Sciences 12/6/21 1615 70.5 95 68.9 5.6 NNE | 33 11.2 0.05 1 70.5 29.95 2.45 69.5 77.7 28.8
UH Manoa Atmospheric Sciences 12/6/21 1600 70.3 94 68.6 3.0 W | 259 7.6 0.15 1 70.3 29.97 2.40 69.5 77.7 28.8
UH Manoa Atmospheric Sciences 12/6/21 1545 70.1 94 68.3 2.3 NW | 324 5.8 0.20 3 70.1 29.96 2.25 69.5 77.7 28.8
UH Manoa Atmospheric Sciences 12/6/21 1530 69.8 94 67.9 3.5 NNE | 22 6.9 0.25 4 69.8 29.95 2.05 69.5 77.7 28.8
UH Manoa Atmospheric Sciences 12/6/21 1515 69.7 93 67.7 4.5 NNE | 21 8.5 0.12 9 69.7 29.95 1.80 69.5 77.7 28.8
UH Manoa Atmospheric Sciences 12/6/21 1500 69.6 93 67.5 4.7 NNE | 32 9.1 0.12 15 69.6 29.94 1.68 69.5 77.7 28.8
UH Manoa Atmospheric Sciences 12/6/21 1445 69.7 92 67.3 4.1 NW | 311 10.2 0.26 18 69.7 29.94 1.56 69.5 77.7 28.8
UH Manoa Atmospheric Sciences 12/6/21 1430 70.2 91 67.4 3.1 W | 279 7.5 0.29 24 70.2 29.95 1.30 69.8 77.7 28.8
UH Manoa Atmospheric Sciences 12/6/21 1415 73.1 89 69.6 7.5 W | 260 19.8 0.37 19 73.1 29.94 1.01 70.3 77.7 28.8
UH Manoa Atmospheric Sciences 12/6/21 1400 76.5 90 73.3 6.6 ENE | 76 13.3 0.00 30 76.5 29.91 0.64 72.8 77.7 28.8
UH Manoa Atmospheric Sciences 12/6/21 1345 76.4 90 73.1 7.9 ENE | 70 17.7 0.02 27 76.4 29.93 0.64 72.8 77.7 28.8
UH Manoa Atmospheric Sciences 12/6/21 1330 76.4 90 73.1 9.5 ENE | 71 18.6 0.00 52 76.4 29.93 0.62 72.8 77.7 28.8
UH Manoa Atmospheric Sciences 12/6/21 1315 76.2 90 73.0 7.2 ENE | 65 22.1 0.04 48 76.2 29.93 0.62 72.8 77.7 28.8
UH Manoa Atmospheric Sciences 12/6/21 1300 76.3 88 72.6 2.4 SSE | 148 7.6 0.16 48 76.3 29.94 0.58 72.8 77.7 28.8
UH Manoa Atmospheric Sciences 12/6/21 1245 75.9 87 71.9 0.4 E | 89 3.2 0.00 36 75.9 29.96 0.42 72.8 77.7 28.8
UH Manoa Atmospheric Sciences 12/6/21 1230 75.7 87 71.6 2.1 E | 97 9.8 0.00 42 75.7 29.97 0.42 72.8 77.7 28.8
UH Manoa Atmospheric Sciences 12/6/21 1215 75.6 87 71.5 5.8 ENE | 72 13.3 0.00 71 75.6 29.98 0.42 72.8 77.7 28.8
UH Manoa Atmospheric Sciences 12/6/21 1200 75.0 90 71.8 7.8 ENE | 65 15.8 0.00 139 75.0 29.98 0.42 72.8 77.7 28.8
UH Manoa Atmospheric Sciences 12/6/21 1145 74.7 91 72.0 6.0 ENE | 70 10.8 0.00 147 74.7 29.99 0.42 72.8 77.7 28.8
UH Manoa Atmospheric Sciences 12/6/21 1130 73.9 91 71.2 7.5 ENE | 69 13.3 0.00 94 73.9 30.00 0.42 72.8 77.7 28.8
UH Manoa Atmospheric Sciences 12/6/21 1115 73.8 91 71.0 5.1 E | 83 16.6 0.02 49 73.8 30.01 0.42 72.8 77.7 28.8
UH Manoa Atmospheric Sciences 12/6/21 1100 74.2 90 71.0 4.8 E | 94 15.5 0.03 33 74.2 30.02 0.40 72.8 77.7 28.8
UH Manoa Atmospheric Sciences 12/6/21 1045 75.8 87 71.7 5.5 E | 90 16.0 0.02 34 75.8 30.01 0.37 72.8 77.7 28.8
UH Manoa Atmospheric Sciences 12/6/21 1030 77.2 86 72.8 3.9 E | 79 8.1 0.00 64 77.2 29.99 0.35 72.8 77.7 28.8
Max     77.2 97 73.3 10.2 - 22.1 0.58 284 77.2 30.08 7.07 72.8 77.7 28.8
Avg     71.0 92 68.7 4.2 - 9.5 0.07 25 71.0 30.00 - - - -
Min     67.1 81 65.4 0.2 - 1.6 0.00 0 67.1 29.91 0.00 66.8 70.1 5.7